sensor_id;sensor_type;location;lat;lon;timestamp;P1;durP1;ratioP1;P2;durP2;ratioP2
9270;SDS011;4673;53.458;9.940;2023-01-31T00:01:21;2.80;;;2.80;;
9270;SDS011;4673;53.458;9.940;2023-01-31T00:03:59;2.27;;;2.27;;
9270;SDS011;4673;53.458;9.940;2023-01-31T00:06:30;2.30;;;2.30;;
9270;SDS011;4673;53.458;9.940;2023-01-31T00:08:58;2.40;;;2.40;;
9270;SDS011;4673;53.458;9.940;2023-01-31T00:11:25;3.63;;;3.63;;
9270;SDS011;4673;53.458;9.940;2023-01-31T00:13:52;2.77;;;2.77;;
9270;SDS011;4673;53.458;9.940;2023-01-31T00:16:18;2.33;;;2.33;;
9270;SDS011;4673;53.458;9.940;2023-01-31T00:18:45;2.93;;;2.93;;
9270;SDS011;4673;53.458;9.940;2023-01-31T00:21:21;2.43;;;2.43;;
9270;SDS011;4673;53.458;9.940;2023-01-31T00:23:50;2.70;;;2.70;;
9270;SDS011;4673;53.458;9.940;2023-01-31T00:28:48;3.20;;;3.10;;
9270;SDS011;4673;53.458;9.940;2023-01-31T00:31:15;4.07;;;4.07;;
9270;SDS011;4673;53.458;9.940;2023-01-31T00:33:43;3.20;;;3.17;;
9270;SDS011;4673;53.458;9.940;2023-01-31T00:36:11;3.30;;;3.30;;
9270;SDS011;4673;53.458;9.940;2023-01-31T00:38:39;3.53;;;3.53;;
9270;SDS011;4673;53.458;9.940;2023-01-31T00:41:06;3.20;;;3.13;;
9270;SDS011;4673;53.458;9.940;2023-01-31T00:43:32;4.63;;;4.53;;
9270;SDS011;4673;53.458;9.940;2023-01-31T00:45:59;3.40;;;3.40;;
9270;SDS011;4673;53.458;9.940;2023-01-31T00:48:25;4.20;;;4.10;;
9270;SDS011;4673;53.458;9.940;2023-01-31T00:50:51;3.23;;;3.23;;
9270;SDS011;4673;53.458;9.940;2023-01-31T00:53:16;4.17;;;4.07;;
9270;SDS011;4673;53.458;9.940;2023-01-31T00:55:47;3.30;;;3.20;;
9270;SDS011;4673;53.458;9.940;2023-01-31T00:58:14;2.80;;;2.80;;
9270;SDS011;4673;53.458;9.940;2023-01-31T01:00:40;3.00;;;3.00;;
9270;SDS011;4673;53.458;9.940;2023-01-31T01:03:05;3.73;;;3.63;;
9270;SDS011;4673;53.458;9.940;2023-01-31T01:05:31;4.17;;;4.07;;
9270;SDS011;4673;53.458;9.940;2023-01-31T01:07:57;4.00;;;3.90;;
9270;SDS011;4673;53.458;9.940;2023-01-31T01:10:22;3.63;;;3.53;;
9270;SDS011;4673;53.458;9.940;2023-01-31T01:12:48;3.70;;;3.60;;
9270;SDS011;4673;53.458;9.940;2023-01-31T01:15:14;4.50;;;4.40;;
9270;SDS011;4673;53.458;9.940;2023-01-31T01:17:39;3.77;;;3.67;;
9270;SDS011;4673;53.458;9.940;2023-01-31T01:20:05;2.07;;;2.07;;
9270;SDS011;4673;53.458;9.940;2023-01-31T01:22:32;3.03;;;3.03;;
9270;SDS011;4673;53.458;9.940;2023-01-31T01:24:58;3.00;;;3.00;;
9270;SDS011;4673;53.458;9.940;2023-01-31T01:27:24;3.77;;;3.67;;
9270;SDS011;4673;53.458;9.940;2023-01-31T01:29:51;3.50;;;3.40;;
9270;SDS011;4673;53.458;9.940;2023-01-31T01:32:17;2.40;;;2.40;;
9270;SDS011;4673;53.458;9.940;2023-01-31T01:34:42;3.40;;;3.40;;
9270;SDS011;4673;53.458;9.940;2023-01-31T01:37:08;2.70;;;2.63;;
9270;SDS011;4673;53.458;9.940;2023-01-31T01:39:36;3.10;;;3.00;;
9270;SDS011;4673;53.458;9.940;2023-01-31T01:42:02;2.93;;;2.83;;
9270;SDS011;4673;53.458;9.940;2023-01-31T01:47:53;3.03;;;2.93;;
9270;SDS011;4673;53.458;9.940;2023-01-31T01:50:22;2.63;;;2.63;;
9270;SDS011;4673;53.458;9.940;2023-01-31T01:53:14;2.93;;;2.93;;
9270;SDS011;4673;53.458;9.940;2023-01-31T01:55:56;3.77;;;3.67;;
9270;SDS011;4673;53.458;9.940;2023-01-31T01:58:39;2.93;;;2.83;;
9270;SDS011;4673;53.458;9.940;2023-01-31T02:01:12;3.63;;;3.53;;
9270;SDS011;4673;53.458;9.940;2023-01-31T02:03:40;3.90;;;3.80;;
9270;SDS011;4673;53.458;9.940;2023-01-31T02:06:08;2.77;;;2.77;;
9270;SDS011;4673;53.458;9.940;2023-01-31T02:08:35;3.63;;;3.53;;
9270;SDS011;4673;53.458;9.940;2023-01-31T02:13:49;3.10;;;3.00;;
9270;SDS011;4673;53.458;9.940;2023-01-31T02:16:18;2.80;;;2.80;;
9270;SDS011;4673;53.458;9.940;2023-01-31T02:18:44;3.17;;;3.17;;
9270;SDS011;4673;53.458;9.940;2023-01-31T02:42:06;2.37;;;2.37;;
9270;SDS011;4673;53.458;9.940;2023-01-31T02:44:26;2.80;;;2.80;;
9270;SDS011;4673;53.458;9.940;2023-01-31T02:52:58;1.87;;;1.87;;
9270;SDS011;4673;53.458;9.940;2023-01-31T02:58:26;2.03;;;2.03;;
9270;SDS011;4673;53.458;9.940;2023-01-31T03:00:56;2.50;;;2.50;;
9270;SDS011;4673;53.458;9.940;2023-01-31T03:03:25;1.70;;;1.70;;
9270;SDS011;4673;53.458;9.940;2023-01-31T03:11:47;1.60;;;1.60;;
9270;SDS011;4673;53.458;9.940;2023-01-31T03:17:03;2.17;;;2.17;;
9270;SDS011;4673;53.458;9.940;2023-01-31T03:19:59;2.10;;;2.10;;
9270;SDS011;4673;53.458;9.940;2023-01-31T03:23:08;3.00;;;3.00;;
9270;SDS011;4673;53.458;9.940;2023-01-31T03:25:38;2.50;;;2.50;;
9270;SDS011;4673;53.458;9.940;2023-01-31T03:28:06;3.67;;;3.67;;
9270;SDS011;4673;53.458;9.940;2023-01-31T03:30:46;4.00;;;3.90;;
9270;SDS011;4673;53.458;9.940;2023-01-31T03:33:20;2.73;;;2.73;;
9270;SDS011;4673;53.458;9.940;2023-01-31T03:35:51;2.50;;;2.50;;
9270;SDS011;4673;53.458;9.940;2023-01-31T03:38:26;2.33;;;2.33;;
9270;SDS011;4673;53.458;9.940;2023-01-31T03:41:09;4.00;;;3.90;;
9270;SDS011;4673;53.458;9.940;2023-01-31T03:43:53;2.57;;;2.57;;
9270;SDS011;4673;53.458;9.940;2023-01-31T03:46:24;2.63;;;2.63;;
9270;SDS011;4673;53.458;9.940;2023-01-31T03:48:54;2.90;;;2.80;;
9270;SDS011;4673;53.458;9.940;2023-01-31T03:51:23;2.80;;;2.77;;
9270;SDS011;4673;53.458;9.940;2023-01-31T03:54:16;2.60;;;2.57;;
9270;SDS011;4673;53.458;9.940;2023-01-31T03:56:53;3.00;;;3.00;;
9270;SDS011;4673;53.458;9.940;2023-01-31T03:59:25;3.10;;;3.10;;
9270;SDS011;4673;53.458;9.940;2023-01-31T04:01:54;3.20;;;3.10;;
9270;SDS011;4673;53.458;9.940;2023-01-31T04:04:45;3.93;;;3.83;;
9270;SDS011;4673;53.458;9.940;2023-01-31T04:07:08;3.77;;;3.67;;
9270;SDS011;4673;53.458;9.940;2023-01-31T04:09:34;3.73;;;3.63;;
9270;SDS011;4673;53.458;9.940;2023-01-31T04:12:01;3.63;;;3.57;;
9270;SDS011;4673;53.458;9.940;2023-01-31T04:14:28;3.80;;;3.70;;
9270;SDS011;4673;53.458;9.940;2023-01-31T04:16:53;2.97;;;2.97;;
9270;SDS011;4673;53.458;9.940;2023-01-31T04:19:19;4.07;;;3.97;;
9270;SDS011;4673;53.458;9.940;2023-01-31T04:21:44;3.57;;;3.53;;
9270;SDS011;4673;53.458;9.940;2023-01-31T04:24:10;3.27;;;3.27;;
9270;SDS011;4673;53.458;9.940;2023-01-31T04:26:36;3.40;;;3.40;;
9270;SDS011;4673;53.458;9.940;2023-01-31T04:29:02;3.57;;;3.47;;
9270;SDS011;4673;53.458;9.940;2023-01-31T04:31:28;3.77;;;3.77;;
9270;SDS011;4673;53.458;9.940;2023-01-31T04:33:54;2.67;;;2.67;;
9270;SDS011;4673;53.458;9.940;2023-01-31T04:36:22;2.37;;;2.37;;
9270;SDS011;4673;53.458;9.940;2023-01-31T04:38:48;2.80;;;2.80;;
9270;SDS011;4673;53.458;9.940;2023-01-31T04:41:14;2.47;;;2.47;;
9270;SDS011;4673;53.458;9.940;2023-01-31T04:43:39;3.13;;;3.13;;
9270;SDS011;4673;53.458;9.940;2023-01-31T04:46:05;2.70;;;2.70;;
9270;SDS011;4673;53.458;9.940;2023-01-31T04:48:31;3.50;;;3.47;;
9270;SDS011;4673;53.458;9.940;2023-01-31T04:50:57;3.07;;;2.97;;
9270;SDS011;4673;53.458;9.940;2023-01-31T04:53:23;2.93;;;2.93;;
9270;SDS011;4673;53.458;9.940;2023-01-31T04:55:48;2.30;;;2.30;;
9270;SDS011;4673;53.458;9.940;2023-01-31T04:58:17;3.20;;;3.20;;
9270;SDS011;4673;53.458;9.940;2023-01-31T05:00:43;3.13;;;3.13;;
9270;SDS011;4673;53.458;9.940;2023-01-31T05:03:09;2.97;;;2.90;;
9270;SDS011;4673;53.458;9.940;2023-01-31T05:05:34;2.57;;;2.50;;
9270;SDS011;4673;53.458;9.940;2023-01-31T05:08:00;3.27;;;3.27;;
9270;SDS011;4673;53.458;9.940;2023-01-31T05:10:25;2.57;;;2.57;;
9270;SDS011;4673;53.458;9.940;2023-01-31T05:12:51;3.23;;;3.23;;
9270;SDS011;4673;53.458;9.940;2023-01-31T05:15:17;3.93;;;3.83;;
9270;SDS011;4673;53.458;9.940;2023-01-31T05:17:42;3.27;;;3.27;;
9270;SDS011;4673;53.458;9.940;2023-01-31T05:20:12;3.40;;;3.30;;
9270;SDS011;4673;53.458;9.940;2023-01-31T05:22:37;3.40;;;3.30;;
9270;SDS011;4673;53.458;9.940;2023-01-31T05:25:03;3.13;;;3.13;;
9270;SDS011;4673;53.458;9.940;2023-01-31T05:27:29;3.63;;;3.53;;
9270;SDS011;4673;53.458;9.940;2023-01-31T05:29:55;3.33;;;3.23;;
9270;SDS011;4673;53.458;9.940;2023-01-31T05:32:21;2.93;;;2.90;;
9270;SDS011;4673;53.458;9.940;2023-01-31T05:34:46;3.90;;;3.80;;
9270;SDS011;4673;53.458;9.940;2023-01-31T05:37:12;4.30;;;4.20;;
9270;SDS011;4673;53.458;9.940;2023-01-31T05:39:37;4.00;;;3.90;;
9270;SDS011;4673;53.458;9.940;2023-01-31T05:42:03;3.93;;;3.83;;
9270;SDS011;4673;53.458;9.940;2023-01-31T05:44:29;5.50;;;5.40;;
9270;SDS011;4673;53.458;9.940;2023-01-31T05:46:56;5.17;;;5.07;;
9270;SDS011;4673;53.458;9.940;2023-01-31T05:49:22;3.73;;;3.63;;
9270;SDS011;4673;53.458;9.940;2023-01-31T05:51:48;4.83;;;4.73;;
9270;SDS011;4673;53.458;9.940;2023-01-31T05:54:13;3.40;;;3.30;;
9270;SDS011;4673;53.458;9.940;2023-01-31T05:56:39;4.00;;;3.90;;
9270;SDS011;4673;53.458;9.940;2023-01-31T05:59:05;4.70;;;4.53;;
9270;SDS011;4673;53.458;9.940;2023-01-31T06:01:30;4.30;;;4.20;;
9270;SDS011;4673;53.458;9.940;2023-01-31T06:03:56;5.40;;;5.30;;
9270;SDS011;4673;53.458;9.940;2023-01-31T06:06:21;4.83;;;4.73;;
9270;SDS011;4673;53.458;9.940;2023-01-31T06:08:47;3.90;;;3.80;;
9270;SDS011;4673;53.458;9.940;2023-01-31T06:11:13;4.00;;;3.90;;
9270;SDS011;4673;53.458;9.940;2023-01-31T06:13:39;4.10;;;4.00;;
9270;SDS011;4673;53.458;9.940;2023-01-31T06:16:09;5.03;;;4.93;;
9270;SDS011;4673;53.458;9.940;2023-01-31T06:18:35;4.33;;;4.23;;
9270;SDS011;4673;53.458;9.940;2023-01-31T06:21:00;3.93;;;3.83;;
9270;SDS011;4673;53.458;9.940;2023-01-31T06:23:26;5.57;;;5.47;;
9270;SDS011;4673;53.458;9.940;2023-01-31T06:25:52;3.90;;;3.80;;
9270;SDS011;4673;53.458;9.940;2023-01-31T06:28:20;3.93;;;3.83;;
9270;SDS011;4673;53.458;9.940;2023-01-31T06:30:46;3.03;;;2.93;;
9270;SDS011;4673;53.458;9.940;2023-01-31T06:33:12;3.70;;;3.63;;
9270;SDS011;4673;53.458;9.940;2023-01-31T06:35:38;3.10;;;3.00;;
9270;SDS011;4673;53.458;9.940;2023-01-31T06:38:04;3.17;;;3.07;;
9270;SDS011;4673;53.458;9.940;2023-01-31T06:40:31;4.57;;;4.47;;
9270;SDS011;4673;53.458;9.940;2023-01-31T06:42:57;3.33;;;3.30;;
9270;SDS011;4673;53.458;9.940;2023-01-31T06:45:23;3.00;;;3.00;;
9270;SDS011;4673;53.458;9.940;2023-01-31T06:47:49;4.10;;;4.00;;
9270;SDS011;4673;53.458;9.940;2023-01-31T06:50:14;3.10;;;3.10;;
9270;SDS011;4673;53.458;9.940;2023-01-31T06:52:40;3.30;;;3.27;;
9270;SDS011;4673;53.458;9.940;2023-01-31T06:55:06;3.30;;;3.30;;
9270;SDS011;4673;53.458;9.940;2023-01-31T06:57:32;4.27;;;4.20;;
9270;SDS011;4673;53.458;9.940;2023-01-31T06:59:58;4.00;;;3.90;;
9270;SDS011;4673;53.458;9.940;2023-01-31T07:02:23;5.37;;;5.27;;
9270;SDS011;4673;53.458;9.940;2023-01-31T07:04:49;5.23;;;5.13;;
9270;SDS011;4673;53.458;9.940;2023-01-31T07:07:15;3.63;;;3.53;;
9270;SDS011;4673;53.458;9.940;2023-01-31T07:09:41;3.27;;;3.17;;
9270;SDS011;4673;53.458;9.940;2023-01-31T07:12:07;3.63;;;3.53;;
9270;SDS011;4673;53.458;9.940;2023-01-31T07:14:32;4.70;;;4.60;;
9270;SDS011;4673;53.458;9.940;2023-01-31T07:16:58;3.87;;;3.77;;
9270;SDS011;4673;53.458;9.940;2023-01-31T07:19:24;5.67;;;5.57;;
9270;SDS011;4673;53.458;9.940;2023-01-31T07:21:49;4.10;;;4.10;;
9270;SDS011;4673;53.458;9.940;2023-01-31T07:24:16;5.17;;;5.07;;
9270;SDS011;4673;53.458;9.940;2023-01-31T07:26:41;4.57;;;4.47;;
9270;SDS011;4673;53.458;9.940;2023-01-31T07:29:07;3.80;;;3.77;;
9270;SDS011;4673;53.458;9.940;2023-01-31T07:31:33;3.77;;;3.77;;
9270;SDS011;4673;53.458;9.940;2023-01-31T07:33:59;4.50;;;4.40;;
9270;SDS011;4673;53.458;9.940;2023-01-31T07:36:25;4.70;;;4.70;;
9270;SDS011;4673;53.458;9.940;2023-01-31T07:38:54;5.23;;;5.13;;
9270;SDS011;4673;53.458;9.940;2023-01-31T07:41:21;5.87;;;5.77;;
9270;SDS011;4673;53.458;9.940;2023-01-31T07:43:48;5.70;;;5.60;;
9270;SDS011;4673;53.458;9.940;2023-01-31T07:46:14;5.93;;;5.83;;
9270;SDS011;4673;53.458;9.940;2023-01-31T07:48:40;6.00;;;5.90;;
9270;SDS011;4673;53.458;9.940;2023-01-31T07:51:05;7.07;;;6.97;;
9270;SDS011;4673;53.458;9.940;2023-01-31T07:53:33;5.63;;;5.53;;
9270;SDS011;4673;53.458;9.940;2023-01-31T07:56:07;5.40;;;5.30;;
9270;SDS011;4673;53.458;9.940;2023-01-31T07:58:36;5.97;;;5.87;;
9270;SDS011;4673;53.458;9.940;2023-01-31T08:01:02;5.37;;;5.37;;
9270;SDS011;4673;53.458;9.940;2023-01-31T08:03:46;5.33;;;5.27;;
9270;SDS011;4673;53.458;9.940;2023-01-31T08:06:11;6.00;;;5.90;;
9270;SDS011;4673;53.458;9.940;2023-01-31T08:08:39;6.00;;;5.90;;
9270;SDS011;4673;53.458;9.940;2023-01-31T08:11:06;5.10;;;5.00;;
9270;SDS011;4673;53.458;9.940;2023-01-31T08:13:32;6.03;;;5.93;;
9270;SDS011;4673;53.458;9.940;2023-01-31T08:15:59;6.57;;;6.47;;
9270;SDS011;4673;53.458;9.940;2023-01-31T08:18:26;5.63;;;5.53;;
9270;SDS011;4673;53.458;9.940;2023-01-31T08:20:51;5.07;;;5.07;;
9270;SDS011;4673;53.458;9.940;2023-01-31T08:23:17;6.63;;;6.53;;
9270;SDS011;4673;53.458;9.940;2023-01-31T08:25:42;6.50;;;6.40;;
9270;SDS011;4673;53.458;9.940;2023-01-31T08:28:09;6.17;;;6.07;;
9270;SDS011;4673;53.458;9.940;2023-01-31T08:30:39;5.90;;;5.80;;
9270;SDS011;4673;53.458;9.940;2023-01-31T08:33:06;6.27;;;6.17;;
9270;SDS011;4673;53.458;9.940;2023-01-31T08:35:32;5.10;;;5.00;;
9270;SDS011;4673;53.458;9.940;2023-01-31T08:37:58;5.57;;;5.47;;
9270;SDS011;4673;53.458;9.940;2023-01-31T08:40:24;5.70;;;5.60;;
9270;SDS011;4673;53.458;9.940;2023-01-31T08:42:59;5.57;;;5.47;;
9270;SDS011;4673;53.458;9.940;2023-01-31T08:45:25;5.97;;;5.87;;
9270;SDS011;4673;53.458;9.940;2023-01-31T08:47:52;6.53;;;6.43;;
9270;SDS011;4673;53.458;9.940;2023-01-31T08:50:22;6.47;;;6.37;;
9270;SDS011;4673;53.458;9.940;2023-01-31T08:52:52;7.00;;;6.90;;
9270;SDS011;4673;53.458;9.940;2023-01-31T08:55:19;5.73;;;5.63;;
9270;SDS011;4673;53.458;9.940;2023-01-31T08:57:46;5.30;;;5.23;;
9270;SDS011;4673;53.458;9.940;2023-01-31T09:00:15;6.43;;;6.33;;
9270;SDS011;4673;53.458;9.940;2023-01-31T09:02:42;6.43;;;6.33;;
9270;SDS011;4673;53.458;9.940;2023-01-31T09:05:10;7.90;;;7.80;;
9270;SDS011;4673;53.458;9.940;2023-01-31T09:07:36;5.13;;;5.03;;
9270;SDS011;4673;53.458;9.940;2023-01-31T09:10:02;5.23;;;5.23;;
9270;SDS011;4673;53.458;9.940;2023-01-31T09:12:28;4.43;;;4.43;;
9270;SDS011;4673;53.458;9.940;2023-01-31T09:14:54;6.03;;;6.03;;
9270;SDS011;4673;53.458;9.940;2023-01-31T09:17:19;5.97;;;5.93;;
9270;SDS011;4673;53.458;9.940;2023-01-31T09:19:45;6.40;;;6.30;;
9270;SDS011;4673;53.458;9.940;2023-01-31T09:22:12;5.87;;;5.77;;
9270;SDS011;4673;53.458;9.940;2023-01-31T09:24:38;6.43;;;6.33;;
9270;SDS011;4673;53.458;9.940;2023-01-31T09:27:05;8.37;;;8.27;;
9270;SDS011;4673;53.458;9.940;2023-01-31T09:29:30;6.03;;;6.03;;
9270;SDS011;4673;53.458;9.940;2023-01-31T09:31:56;6.80;;;6.80;;
9270;SDS011;4673;53.458;9.940;2023-01-31T09:34:22;5.27;;;5.27;;
9270;SDS011;4673;53.458;9.940;2023-01-31T09:36:47;6.50;;;6.50;;
9270;SDS011;4673;53.458;9.940;2023-01-31T09:39:13;6.40;;;6.40;;
9270;SDS011;4673;53.458;9.940;2023-01-31T09:41:43;6.07;;;6.07;;
9270;SDS011;4673;53.458;9.940;2023-01-31T09:44:35;6.23;;;6.13;;
9270;SDS011;4673;53.458;9.940;2023-01-31T09:47:12;6.47;;;6.37;;
9270;SDS011;4673;53.458;9.940;2023-01-31T09:49:47;7.20;;;7.10;;
9270;SDS011;4673;53.458;9.940;2023-01-31T09:52:19;7.10;;;7.00;;
9270;SDS011;4673;53.458;9.940;2023-01-31T09:54:46;7.03;;;7.03;;
9270;SDS011;4673;53.458;9.940;2023-01-31T10:00:14;7.47;;;7.47;;
9270;SDS011;4673;53.458;9.940;2023-01-31T10:05:49;6.50;;;6.50;;
9270;SDS011;4673;53.458;9.940;2023-01-31T10:08:38;7.37;;;7.27;;
9270;SDS011;4673;53.458;9.940;2023-01-31T10:11:27;7.03;;;6.93;;
9270;SDS011;4673;53.458;9.940;2023-01-31T10:13:55;6.57;;;6.57;;
9270;SDS011;4673;53.458;9.940;2023-01-31T10:19:36;8.20;;;8.20;;
9270;SDS011;4673;53.458;9.940;2023-01-31T10:22:11;8.43;;;8.43;;
9270;SDS011;4673;53.458;9.940;2023-01-31T10:24:45;8.70;;;8.60;;
9270;SDS011;4673;53.458;9.940;2023-01-31T10:27:31;8.57;;;8.47;;
9270;SDS011;4673;53.458;9.940;2023-01-31T10:30:11;8.77;;;8.67;;
9270;SDS011;4673;53.458;9.940;2023-01-31T10:32:41;8.50;;;8.47;;
9270;SDS011;4673;53.458;9.940;2023-01-31T10:40:31;8.47;;;8.37;;
9270;SDS011;4673;53.458;9.940;2023-01-31T10:43:13;8.77;;;8.70;;
9270;SDS011;4673;53.458;9.940;2023-01-31T10:45:52;9.10;;;9.10;;
9270;SDS011;4673;53.458;9.940;2023-01-31T10:48:20;8.57;;;8.53;;
9270;SDS011;4673;53.458;9.940;2023-01-31T10:58:45;9.57;;;9.47;;
9270;SDS011;4673;53.458;9.940;2023-01-31T11:01:11;8.80;;;8.80;;
9270;SDS011;4673;53.458;9.940;2023-01-31T11:03:39;9.43;;;9.43;;
9270;SDS011;4673;53.458;9.940;2023-01-31T11:06:09;8.67;;;8.57;;
9270;SDS011;4673;53.458;9.940;2023-01-31T11:08:47;7.77;;;7.67;;
9270;SDS011;4673;53.458;9.940;2023-01-31T11:11:16;7.33;;;7.33;;
9270;SDS011;4673;53.458;9.940;2023-01-31T11:16:33;10.33;;;10.33;;
9270;SDS011;4673;53.458;9.940;2023-01-31T11:19:03;9.10;;;9.10;;
9270;SDS011;4673;53.458;9.940;2023-01-31T11:21:50;11.10;;;11.00;;
9270;SDS011;4673;53.458;9.940;2023-01-31T11:24:24;10.03;;;10.03;;
9270;SDS011;4673;53.458;9.940;2023-01-31T11:27:06;9.60;;;9.60;;
9270;SDS011;4673;53.458;9.940;2023-01-31T11:29:38;8.57;;;8.47;;
9270;SDS011;4673;53.458;9.940;2023-01-31T11:32:19;8.13;;;8.13;;
9270;SDS011;4673;53.458;9.940;2023-01-31T11:35:00;6.47;;;6.47;;
9270;SDS011;4673;53.458;9.940;2023-01-31T11:40:36;8.70;;;8.63;;
9270;SDS011;4673;53.458;9.940;2023-01-31T11:43:04;9.70;;;9.70;;
9270;SDS011;4673;53.458;9.940;2023-01-31T11:45:46;7.07;;;7.07;;
9270;SDS011;4673;53.458;9.940;2023-01-31T11:48:39;9.53;;;9.43;;
9270;SDS011;4673;53.458;9.940;2023-01-31T11:51:06;8.33;;;8.33;;
9270;SDS011;4673;53.458;9.940;2023-01-31T11:53:37;8.27;;;8.27;;
9270;SDS011;4673;53.458;9.940;2023-01-31T11:56:14;6.77;;;6.77;;
9270;SDS011;4673;53.458;9.940;2023-01-31T11:58:51;8.87;;;8.87;;
9270;SDS011;4673;53.458;9.940;2023-01-31T12:01:20;6.97;;;6.97;;
9270;SDS011;4673;53.458;9.940;2023-01-31T12:03:57;6.37;;;6.37;;
9270;SDS011;4673;53.458;9.940;2023-01-31T12:06:32;6.20;;;6.20;;
9270;SDS011;4673;53.458;9.940;2023-01-31T12:09:00;5.50;;;5.50;;
9270;SDS011;4673;53.458;9.940;2023-01-31T12:11:30;4.97;;;4.97;;
9270;SDS011;4673;53.458;9.940;2023-01-31T12:16:39;4.53;;;4.53;;
9270;SDS011;4673;53.458;9.940;2023-01-31T12:32:42;3.17;;;3.17;;
9270;SDS011;4673;53.458;9.940;2023-01-31T12:41:31;5.93;;;5.93;;
9270;SDS011;4673;53.458;9.940;2023-01-31T12:46:55;4.30;;;4.30;;
9270;SDS011;4673;53.458;9.940;2023-01-31T12:55:02;4.50;;;4.50;;
9270;SDS011;4673;53.458;9.940;2023-01-31T13:03:29;8.20;;;8.20;;
9270;SDS011;4673;53.458;9.940;2023-01-31T13:06:00;4.83;;;4.83;;
9270;SDS011;4673;53.458;9.940;2023-01-31T13:08:31;4.77;;;4.77;;
9270;SDS011;4673;53.458;9.940;2023-01-31T13:13:57;3.90;;;3.90;;
9270;SDS011;4673;53.458;9.940;2023-01-31T13:17:00;2.60;;;2.60;;
9270;SDS011;4673;53.458;9.940;2023-01-31T13:19:22;3.10;;;3.10;;
9270;SDS011;4673;53.458;9.940;2023-01-31T13:21:55;3.13;;;3.13;;
9270;SDS011;4673;53.458;9.940;2023-01-31T13:24:25;4.23;;;4.23;;
9270;SDS011;4673;53.458;9.940;2023-01-31T13:27:07;2.33;;;2.33;;
9270;SDS011;4673;53.458;9.940;2023-01-31T13:29:38;3.80;;;3.80;;
9270;SDS011;4673;53.458;9.940;2023-01-31T13:32:27;1.83;;;1.83;;
9270;SDS011;4673;53.458;9.940;2023-01-31T13:37:38;2.33;;;2.33;;
9270;SDS011;4673;53.458;9.940;2023-01-31T13:40:20;1.90;;;1.90;;
9270;SDS011;4673;53.458;9.940;2023-01-31T13:42:49;2.00;;;2.00;;
9270;SDS011;4673;53.458;9.940;2023-01-31T13:45:21;1.70;;;1.70;;
9270;SDS011;4673;53.458;9.940;2023-01-31T13:47:54;1.80;;;1.80;;
9270;SDS011;4673;53.458;9.940;2023-01-31T13:53:08;3.93;;;3.93;;
9270;SDS011;4673;53.458;9.940;2023-01-31T13:55:43;2.60;;;2.60;;
9270;SDS011;4673;53.458;9.940;2023-01-31T13:58:19;2.80;;;2.80;;
9270;SDS011;4673;53.458;9.940;2023-01-31T14:11:48;3.30;;;3.30;;
9270;SDS011;4673;53.458;9.940;2023-01-31T14:16:54;3.50;;;3.50;;
9270;SDS011;4673;53.458;9.940;2023-01-31T14:22:02;3.17;;;3.17;;
9270;SDS011;4673;53.458;9.940;2023-01-31T14:35:46;3.20;;;3.20;;
9270;SDS011;4673;53.458;9.940;2023-01-31T14:41:51;3.13;;;3.13;;
9270;SDS011;4673;53.458;9.940;2023-01-31T14:58:13;2.40;;;2.40;;
9270;SDS011;4673;53.458;9.940;2023-01-31T15:00:49;4.33;;;4.33;;
9270;SDS011;4673;53.458;9.940;2023-01-31T15:05:48;3.20;;;3.20;;
9270;SDS011;4673;53.458;9.940;2023-01-31T15:21:47;4.93;;;4.93;;
9270;SDS011;4673;53.458;9.940;2023-01-31T15:24:18;3.77;;;3.73;;
9270;SDS011;4673;53.458;9.940;2023-01-31T15:27:00;3.97;;;3.90;;
9270;SDS011;4673;53.458;9.940;2023-01-31T15:29:32;4.20;;;4.20;;
9270;SDS011;4673;53.458;9.940;2023-01-31T15:32:13;4.07;;;4.07;;
9270;SDS011;4673;53.458;9.940;2023-01-31T15:35:14;5.03;;;4.93;;
9270;SDS011;4673;53.458;9.940;2023-01-31T15:37:46;3.37;;;3.27;;
9270;SDS011;4673;53.458;9.940;2023-01-31T15:40:26;4.37;;;4.37;;
9270;SDS011;4673;53.458;9.940;2023-01-31T15:42:53;6.90;;;6.80;;
9270;SDS011;4673;53.458;9.940;2023-01-31T15:45:38;6.00;;;5.90;;
9270;SDS011;4673;53.458;9.940;2023-01-31T15:48:10;5.37;;;5.27;;
9270;SDS011;4673;53.458;9.940;2023-01-31T15:50:38;4.60;;;4.50;;
9270;SDS011;4673;53.458;9.940;2023-01-31T15:53:15;8.10;;;8.00;;
9270;SDS011;4673;53.458;9.940;2023-01-31T15:55:41;5.63;;;5.43;;
9270;SDS011;4673;53.458;9.940;2023-01-31T15:58:17;7.23;;;7.10;;
9270;SDS011;4673;53.458;9.940;2023-01-31T16:00:48;5.60;;;5.50;;
9270;SDS011;4673;53.458;9.940;2023-01-31T16:03:22;7.40;;;7.30;;
9270;SDS011;4673;53.458;9.940;2023-01-31T16:06:54;5.90;;;5.83;;
9270;SDS011;4673;53.458;9.940;2023-01-31T16:09:02;7.57;;;7.37;;
9270;SDS011;4673;53.458;9.940;2023-01-31T16:11:30;4.83;;;4.73;;
9270;SDS011;4673;53.458;9.940;2023-01-31T16:13:58;5.63;;;5.47;;
9270;SDS011;4673;53.458;9.940;2023-01-31T16:16:26;6.77;;;6.67;;
9270;SDS011;4673;53.458;9.940;2023-01-31T16:18:56;5.37;;;5.27;;
9270;SDS011;4673;53.458;9.940;2023-01-31T16:24:24;5.60;;;5.50;;
9270;SDS011;4673;53.458;9.940;2023-01-31T16:29:15;2.10;;;2.10;;
9270;SDS011;4673;53.458;9.940;2023-01-31T16:31:45;2.43;;;2.43;;
9270;SDS011;4673;53.458;9.940;2023-01-31T16:34:20;1.47;;;1.47;;
9270;SDS011;4673;53.458;9.940;2023-01-31T16:37:03;2.40;;;2.40;;
9270;SDS011;4673;53.458;9.940;2023-01-31T16:39:35;3.70;;;3.70;;
9270;SDS011;4673;53.458;9.940;2023-01-31T16:44:40;2.10;;;2.10;;
9270;SDS011;4673;53.458;9.940;2023-01-31T16:47:13;3.43;;;3.40;;
9270;SDS011;4673;53.458;9.940;2023-01-31T16:52:44;6.37;;;6.27;;
9270;SDS011;4673;53.458;9.940;2023-01-31T16:55:15;6.97;;;6.87;;
9270;SDS011;4673;53.458;9.940;2023-01-31T16:57:45;5.47;;;5.37;;
9270;SDS011;4673;53.458;9.940;2023-01-31T17:02:50;6.10;;;6.00;;
9270;SDS011;4673;53.458;9.940;2023-01-31T17:05:24;5.20;;;5.10;;
9270;SDS011;4673;53.458;9.940;2023-01-31T17:08:14;5.90;;;5.80;;
9270;SDS011;4673;53.458;9.940;2023-01-31T17:10:42;7.00;;;6.87;;
9270;SDS011;4673;53.458;9.940;2023-01-31T17:13:21;5.60;;;5.50;;
9270;SDS011;4673;53.458;9.940;2023-01-31T17:15:49;8.23;;;8.03;;
9270;SDS011;4673;53.458;9.940;2023-01-31T17:18:15;8.03;;;7.87;;
9270;SDS011;4673;53.458;9.940;2023-01-31T17:20:42;6.17;;;6.00;;
9270;SDS011;4673;53.458;9.940;2023-01-31T17:23:11;5.13;;;5.03;;
9270;SDS011;4673;53.458;9.940;2023-01-31T17:25:37;4.27;;;4.17;;
9270;SDS011;4673;53.458;9.940;2023-01-31T17:28:04;5.50;;;5.40;;
9270;SDS011;4673;53.458;9.940;2023-01-31T17:30:31;4.53;;;4.43;;
9270;SDS011;4673;53.458;9.940;2023-01-31T17:32:57;5.60;;;5.50;;
9270;SDS011;4673;53.458;9.940;2023-01-31T17:35:34;6.43;;;6.33;;
9270;SDS011;4673;53.458;9.940;2023-01-31T17:38:01;8.17;;;7.97;;
9270;SDS011;4673;53.458;9.940;2023-01-31T17:40:27;5.47;;;5.37;;
9270;SDS011;4673;53.458;9.940;2023-01-31T17:42:57;7.07;;;6.97;;
9270;SDS011;4673;53.458;9.940;2023-01-31T17:45:25;6.37;;;6.27;;
9270;SDS011;4673;53.458;9.940;2023-01-31T17:47:51;4.30;;;4.20;;
9270;SDS011;4673;53.458;9.940;2023-01-31T17:50:21;6.07;;;5.97;;
9270;SDS011;4673;53.458;9.940;2023-01-31T17:52:48;5.47;;;5.27;;
9270;SDS011;4673;53.458;9.940;2023-01-31T17:55:14;7.07;;;6.87;;
9270;SDS011;4673;53.458;9.940;2023-01-31T17:57:40;6.20;;;6.10;;
9270;SDS011;4673;53.458;9.940;2023-01-31T18:00:08;5.13;;;5.03;;
9270;SDS011;4673;53.458;9.940;2023-01-31T18:02:36;6.40;;;6.30;;
9270;SDS011;4673;53.458;9.940;2023-01-31T18:05:05;6.13;;;6.03;;
9270;SDS011;4673;53.458;9.940;2023-01-31T18:07:32;5.97;;;5.80;;
9270;SDS011;4673;53.458;9.940;2023-01-31T18:09:57;4.73;;;4.63;;
9270;SDS011;4673;53.458;9.940;2023-01-31T18:12:23;6.70;;;6.50;;
9270;SDS011;4673;53.458;9.940;2023-01-31T18:14:49;4.43;;;4.33;;
9270;SDS011;4673;53.458;9.940;2023-01-31T18:17:14;4.80;;;4.70;;
9270;SDS011;4673;53.458;9.940;2023-01-31T18:19:40;5.47;;;5.37;;
9270;SDS011;4673;53.458;9.940;2023-01-31T18:22:06;6.90;;;6.80;;
9270;SDS011;4673;53.458;9.940;2023-01-31T18:24:31;5.30;;;5.10;;
9270;SDS011;4673;53.458;9.940;2023-01-31T18:26:57;6.40;;;6.30;;
9270;SDS011;4673;53.458;9.940;2023-01-31T18:29:23;5.07;;;4.97;;
9270;SDS011;4673;53.458;9.940;2023-01-31T18:31:52;4.87;;;4.70;;
9270;SDS011;4673;53.458;9.940;2023-01-31T18:34:22;5.53;;;5.43;;
9270;SDS011;4673;53.458;9.940;2023-01-31T18:36:48;6.50;;;6.40;;
9270;SDS011;4673;53.458;9.940;2023-01-31T18:39:14;4.43;;;4.33;;
9270;SDS011;4673;53.458;9.940;2023-01-31T18:41:40;4.80;;;4.70;;
9270;SDS011;4673;53.458;9.940;2023-01-31T18:44:06;5.00;;;4.90;;
9270;SDS011;4673;53.458;9.940;2023-01-31T18:46:32;5.83;;;5.73;;